Time;durP1;ratioP1;P1;durP2;ratioP2;P2;SDS_P1;SDS_P2;PMS_P1;PMS_P2;Temp;Humidity;BMP_temperature;BMP_pressure;BME280_temperature;BME280_humidity;BME280_pressure;Samples;Min_cycle;Max_cycle;Signal;HPM_P1;HPM_P2
2022/06/08 00:01:21;;;;;;;21.38;12.07;;;;;;;;;;10284478;28;20043;-68
2022/06/08 00:06:26;;;;;;;18.50;13.02;;;;;;;;;;10284464;28;20230;-68
2022/06/08 00:11:28;;;;;;;21.80;12.73;;;;;;;;;;10284105;28;20059;-68
2022/06/08 00:16:31;;;;;;;26.73;13.02;;;;;;;;;;10270968;28;20055;-68
2022/06/08 00:21:36;;;;;;;21.85;12.27;;;;;;;;;;10283812;28;20345;-67
2022/06/08 00:26:38;;;;;;;25.00;13.50;;;;;;;;;;10284190;28;20059;-67
2022/06/08 00:31:41;;;;;;;24.83;14.05;;;;;;;;;;10270599;28;20059;-67
2022/06/08 00:36:45;;;;;;;23.77;13.15;;;;;;;;;;10283956;28;20058;-67
2022/06/08 00:41:51;;;;;;;22.73;13.15;;;;;;;;;;10283360;28;20054;-67
2022/06/08 00:46:55;;;;;;;22.63;13.52;;;;;;;;;;10283689;28;20246;-68
2022/06/08 00:52:01;;;;;;;24.20;13.05;;;;;;;;;;10287565;28;20047;-68
2022/06/08 00:57:11;;;;;;;22.13;13.32;;;;;;;;;;10289911;28;20043;-68
2022/06/08 01:02:14;;;;;;;25.60;14.45;;;;;;;;;;10289889;28;20294;-68
2022/06/08 01:07:21;;;;;;;20.67;12.82;;;;;;;;;;10290239;28;20051;-68
2022/06/08 01:12:23;;;;;;;26.70;15.02;;;;;;;;;;10289983;28;20117;-68
2022/06/08 01:17:26;;;;;;;29.83;13.95;;;;;;;;;;10289932;28;20066;-68
2022/06/08 01:22:30;;;;;;;25.33;13.20;;;;;;;;;;10276178;28;20106;-68
2022/06/08 01:27:46;;;;;;;19.02;11.98;;;;;;;;;;10276226;28;20369;-68
2022/06/08 01:33:23;;;;;;;20.77;12.00;;;;;;;;;;10275983;28;20122;-68
2022/06/08 01:38:38;;;;;;;22.25;12.57;;;;;;;;;;10239079;29;20102;-68
2022/06/08 01:43:48;;;;;;;22.10;12.90;;;;;;;;;;10288614;28;20043;-68
2022/06/08 01:49:17;;;;;;;22.35;12.50;;;;;;;;;;10275615;28;20058;-68
2022/06/08 01:54:36;;;;;;;19.23;12.40;;;;;;;;;;10288863;28;20070;-68
2022/06/08 01:59:44;;;;;;;24.52;13.93;;;;;;;;;;10288578;28;20043;-67
2022/06/08 02:04:51;;;;;;;24.38;13.88;;;;;;;;;;10273996;28;20043;-67
2022/06/08 02:10:00;;;;;;;22.30;13.02;;;;;;;;;;10283249;28;20071;-67
2022/06/08 02:15:08;;;;;;;21.58;13.40;;;;;;;;;;10274086;28;20335;-68
2022/06/08 02:20:17;;;;;;;23.02;13.25;;;;;;;;;;10287322;28;20050;-68
2022/06/08 02:25:25;;;;;;;24.77;13.77;;;;;;;;;;10286884;28;20074;-68
2022/06/08 02:30:33;;;;;;;26.17;13.23;;;;;;;;;;10277162;28;20063;-68
2022/06/08 02:35:40;;;;;;;25.02;13.20;;;;;;;;;;10286561;28;20051;-68
2022/06/08 02:40:48;;;;;;;22.48;13.30;;;;;;;;;;10286527;28;20110;-68
2022/06/08 02:45:57;;;;;;;23.77;13.95;;;;;;;;;;10286489;28;20047;-68
2022/06/08 02:51:00;;;;;;;22.50;12.95;;;;;;;;;;10287020;28;20039;-69
2022/06/08 02:56:13;;;;;;;26.95;13.82;;;;;;;;;;10286621;28;20075;-68
2022/06/08 03:01:22;;;;;;;20.83;12.77;;;;;;;;;;10286814;28;20042;-68
2022/06/08 03:06:27;;;;;;;25.40;13.88;;;;;;;;;;10286150;28;20050;-67
2022/06/08 03:11:38;;;;;;;30.23;15.77;;;;;;;;;;10286368;28;20043;-68
2022/06/08 03:16:51;;;;;;;29.65;15.00;;;;;;;;;;10272920;28;20373;-67
2022/06/08 03:21:54;;;;;;;26.15;15.27;;;;;;;;;;10285747;28;20055;-68
2022/06/08 03:27:02;;;;;;;34.37;15.70;;;;;;;;;;10280442;28;20062;-67
2022/06/08 03:32:07;;;;;;;28.83;13.88;;;;;;;;;;10274787;28;20051;-68
2022/06/08 03:37:09;;;;;;;25.58;14.55;;;;;;;;;;10285888;28;20071;-68
2022/06/08 03:42:13;;;;;;;24.42;15.00;;;;;;;;;;10274341;28;20106;-67
2022/06/08 03:47:20;;;;;;;29.73;16.08;;;;;;;;;;10265148;28;20157;-67
2022/06/08 03:52:27;;;;;;;28.08;15.35;;;;;;;;;;10287177;28;20071;-68
2022/06/08 03:57:32;;;;;;;29.20;15.02;;;;;;;;;;10284582;28;20040;-68
2022/06/08 04:02:34;;;;;;;23.17;13.02;;;;;;;;;;10272400;28;20062;-69
2022/06/08 04:07:37;;;;;;;26.38;13.93;;;;;;;;;;10285152;28;20043;-68
2022/06/08 04:12:41;;;;;;;24.23;13.52;;;;;;;;;;10285596;28;20306;-68
2022/06/08 04:17:44;;;;;;;26.33;13.40;;;;;;;;;;10284432;28;20212;-68
2022/06/08 04:22:46;;;;;;;26.30;14.02;;;;;;;;;;10271795;28;20047;-68
2022/06/08 04:27:50;;;;;;;29.75;14.30;;;;;;;;;;10287686;28;20051;-68
2022/06/08 04:32:53;;;;;;;33.20;14.65;;;;;;;;;;10278632;28;20082;-68
2022/06/08 04:37:56;;;;;;;24.65;13.73;;;;;;;;;;10291987;28;20043;-68
2022/06/08 04:43:00;;;;;;;24.30;13.98;;;;;;;;;;10278285;28;20238;-67
2022/06/08 04:48:03;;;;;;;22.15;13.65;;;;;;;;;;10291593;28;20046;-68
2022/06/08 04:53:05;;;;;;;26.45;14.10;;;;;;;;;;10278065;28;20059;-68
2022/06/08 04:58:09;;;;;;;30.25;15.57;;;;;;;;;;10290789;28;20271;-68
2022/06/08 05:03:11;;;;;;;;;;;;;;;;;;10290797;28;20079;-68
2022/06/08 05:08:13;;;;;;;23.20;12.80;;;;;;;;;;10290403;28;19919;-68
2022/06/08 05:13:18;;;;;;;20.77;12.48;;;;;;;;;;10286898;28;20050;-68
2022/06/08 05:18:22;;;;;;;28.00;14.00;;;;;;;;;;10285454;28;20334;-68
2022/06/08 05:23:27;;;;;;;21.48;13.02;;;;;;;;;;10284680;28;20386;-68
2022/06/08 05:28:32;;;;;;;24.70;12.68;;;;;;;;;;10282981;28;20059;-68
2022/06/08 05:33:34;;;;;;;23.52;12.57;;;;;;;;;;10280467;28;20357;-68
2022/06/08 05:38:37;;;;;;;21.52;12.63;;;;;;;;;;10278750;28;20043;-68
2022/06/08 05:43:40;;;;;;;17.83;10.80;;;;;;;;;;10287111;28;20059;-69
2022/06/08 05:48:43;;;;;;;19.33;10.80;;;;;;;;;;10286682;28;20070;-68
2022/06/08 05:53:46;;;;;;;20.52;11.68;;;;;;;;;;10286288;28;20081;-68
2022/06/08 05:58:49;;;;;;;19.37;11.53;;;;;;;;;;10266564;28;20081;-67
2022/06/08 06:03:52;;;;;;;21.45;12.07;;;;;;;;;;10285906;28;20348;-69
2022/06/08 06:08:54;;;;;;;21.80;11.67;;;;;;;;;;10273151;28;20338;-69
2022/06/08 06:13:59;;;;;;;19.30;10.63;;;;;;;;;;10284742;28;20481;-68
2022/06/08 06:19:04;;;;;;;15.82;10.10;;;;;;;;;;10265882;29;20051;-68
2022/06/08 06:24:07;;;;;;;15.18;9.43;;;;;;;;;;10286600;28;20055;-69
2022/06/08 06:29:11;;;;;;;16.77;9.80;;;;;;;;;;10273122;28;20066;-68
2022/06/08 06:34:16;;;;;;;15.77;9.70;;;;;;;;;;10283476;28;20043;-67
2022/06/08 06:39:18;;;;;;;12.65;8.45;;;;;;;;;;10285932;28;20055;-69
2022/06/08 06:44:22;;;;;;;11.02;7.70;;;;;;;;;;10272355;28;20315;-68
2022/06/08 06:49:25;;;;;;;13.95;8.30;;;;;;;;;;10265140;28;20058;-68
2022/06/08 06:54:27;;;;;;;11.77;8.27;;;;;;;;;;10271265;28;20043;-68
2022/06/08 06:59:31;;;;;;;13.35;8.93;;;;;;;;;;10285554;28;20070;-69
2022/06/08 07:04:33;;;;;;;15.00;9.30;;;;;;;;;;10271600;29;20079;-68
2022/06/08 07:09:36;;;;;;;15.02;8.77;;;;;;;;;;10268357;28;20063;-68
2022/06/08 07:14:41;;;;;;;12.07;8.90;;;;;;;;;;10277563;28;20242;-69
2022/06/08 07:19:44;;;;;;;15.40;9.52;;;;;;;;;;10276351;28;20043;-69
2022/06/08 07:24:46;;;;;;;15.18;9.25;;;;;;;;;;10282403;28;20061;-68
2022/06/08 07:29:51;;;;;;;17.88;10.23;;;;;;;;;;10275602;28;20051;-68
2022/06/08 07:34:53;;;;;;;17.63;9.65;;;;;;;;;;10263833;29;20060;-68
2022/06/08 07:39:56;;;;;;;19.05;10.85;;;;;;;;;;10283680;28;20043;-68
2022/06/08 07:44:59;;;;;;;16.33;9.90;;;;;;;;;;10283326;28;20050;-69
2022/06/08 07:50:02;;;;;;;18.33;11.00;;;;;;;;;;10276550;28;20056;-67
2022/06/08 07:55:05;;;;;;;18.65;11.10;;;;;;;;;;10269866;28;20039;-68
2022/06/08 08:00:12;;;;;;;27.45;10.23;;;;;;;;;;10286725;28;20065;-69
2022/06/08 08:05:16;;;;;;;14.50;9.60;;;;;;;;;;10274603;28;20059;-68
2022/06/08 08:10:21;;;;;;;19.63;10.35;;;;;;;;;;10280019;28;20312;-69
2022/06/08 08:15:26;;;;;;;14.68;9.68;;;;;;;;;;10288478;28;20039;-69
2022/06/08 08:20:30;;;;;;;14.10;9.45;;;;;;;;;;10283645;28;20040;-68
2022/06/08 08:25:32;;;;;;;18.75;9.25;;;;;;;;;;10280829;28;20043;-68
2022/06/08 08:30:37;;;;;;;18.23;10.00;;;;;;;;;;10276698;28;20067;-69
2022/06/08 08:35:39;;;;;;;12.25;8.35;;;;;;;;;;10283222;28;20082;-69
2022/06/08 08:40:47;;;;;;;10.07;6.75;;;;;;;;;;10277657;28;20052;-69
2022/06/08 08:46:07;;;;;;;9.35;5.43;;;;;;;;;;10275867;29;20242;-69
2022/06/08 08:51:14;;;;;;;;;;;;;;;;;;10283919;28;20051;-67
2022/06/08 08:56:22;;;;;;;9.90;6.15;;;;;;;;;;10275046;28;19918;-68
2022/06/08 09:01:29;;;;;;;8.00;5.50;;;;;;;;;;10282238;28;20060;-70
2022/06/08 09:06:34;;;;;;;5.72;4.47;;;;;;;;;;10275461;28;20059;-70
2022/06/08 09:11:38;;;;;;;5.25;4.00;;;;;;;;;;10277738;28;20063;-69
2022/06/08 09:16:45;;;;;;;8.15;4.00;;;;;;;;;;10284651;28;20051;-68
2022/06/08 09:21:49;;;;;;;8.20;4.15;;;;;;;;;;10271050;28;20059;-69
2022/06/08 09:26:56;;;;;;;5.45;3.65;;;;;;;;;;10288807;28;20051;-69
2022/06/08 09:32:00;;;;;;;8.50;4.65;;;;;;;;;;10265753;28;20078;-70
2022/06/08 09:37:11;;;;;;;5.65;3.55;;;;;;;;;;10288401;28;20051;-69
2022/06/08 09:42:26;;;;;;;5.72;3.97;;;;;;;;;;10267170;29;20050;-69
2022/06/08 09:53:05;;;;;;;6.37;3.33;;;;;;;;;;10282568;28;20047;-69
2022/06/08 09:58:28;;;;;;;5.00;3.58;;;;;;;;;;10288481;28;20266;-69
2022/06/08 10:03:56;;;;;;;7.03;3.70;;;;;;;;;;10269334;29;20362;-68
2022/06/08 10:09:08;;;;;;;6.00;4.07;;;;;;;;;;10275272;28;20058;-68
2022/06/08 10:14:21;;;;;;;5.38;3.10;;;;;;;;;;10288465;28;20258;-67
2022/06/08 10:19:31;;;;;;;6.65;3.35;;;;;;;;;;10288402;28;20046;-69
2022/06/08 10:24:37;;;;;;;;;;;;;;;;;;10274640;28;20054;-68
2022/06/08 10:29:45;;;;;;;5.32;3.35;;;;;;;;;;10278725;28;19941;-68
2022/06/08 10:34:54;;;;;;;7.15;2.70;;;;;;;;;;10287992;28;20047;-70
2022/06/08 10:39:57;;;;;;;4.95;3.40;;;;;;;;;;10288527;28;20067;-69
2022/06/08 10:45:00;;;;;;;6.28;3.50;;;;;;;;;;10286933;28;20132;-69
2022/06/08 10:50:22;;;;;;;5.28;3.25;;;;;;;;;;10287876;28;20054;-69
2022/06/08 10:55:41;;;;;;;4.32;3.10;;;;;;;;;;10286675;28;20267;-68
2022/06/08 11:01:29;;;;;;;7.28;3.80;;;;;;;;;;10287591;28;20058;-68
2022/06/08 11:07:07;;;;;;;8.00;3.10;;;;;;;;;;10190453;29;20215;-70
2022/06/08 11:12:27;;;;;;;4.93;3.15;;;;;;;;;;10191358;29;20135;-70
2022/06/08 11:17:34;;;;;;;8.93;3.03;;;;;;;;;;10194662;29;20064;-68
2022/06/08 11:22:43;;;;;;;5.40;3.25;;;;;;;;;;10196860;29;20064;-70
2022/06/08 11:27:45;;;;;;;5.75;3.15;;;;;;;;;;10200866;29;20072;-68
2022/06/08 11:33:18;;;;;;;6.47;2.47;;;;;;;;;;10189729;29;20067;-68
2022/06/08 11:38:40;;;;;;;3.72;3.20;;;;;;;;;;10271425;29;20070;-68
2022/06/08 11:43:43;;;;;;;5.03;3.10;;;;;;;;;;10285981;28;20287;-69
2022/06/08 11:48:49;;;;;;;4.68;3.00;;;;;;;;;;10286566;28;20226;-69
2022/06/08 11:53:53;;;;;;;7.95;3.25;;;;;;;;;;10272220;28;20038;-68
2022/06/08 11:58:57;;;;;;;4.82;3.20;;;;;;;;;;10285289;28;20047;-68
2022/06/08 12:04:04;;;;;;;3.17;2.72;;;;;;;;;;10285268;28;20247;-69
2022/06/08 12:09:14;;;;;;;6.82;3.70;;;;;;;;;;10281998;28;20327;-69
2022/06/08 12:14:18;;;;;;;3.75;2.72;;;;;;;;;;10237046;29;20062;-68
2022/06/08 12:19:23;;;;;;;5.18;3.53;;;;;;;;;;10284659;28;20039;-69
2022/06/08 12:24:28;;;;;;;6.80;3.50;;;;;;;;;;10245568;29;20067;-68
2022/06/08 12:29:39;;;;;;;9.10;3.40;;;;;;;;;;10247998;29;20072;-67
2022/06/08 12:34:45;;;;;;;7.43;3.47;;;;;;;;;;10245009;29;20048;-68
2022/06/08 12:39:49;;;;;;;5.07;3.10;;;;;;;;;;10245183;29;20043;-69
2022/06/08 12:44:55;;;;;;;3.80;2.60;;;;;;;;;;10245602;29;20078;-68
2022/06/08 12:50:01;;;;;;;9.05;2.72;;;;;;;;;;10252040;28;20043;-69
2022/06/08 12:55:14;;;;;;;4.07;2.20;;;;;;;;;;10270953;28;20054;-68
2022/06/08 13:00:19;;;;;;;2.83;2.22;;;;;;;;;;10278213;28;20239;-67
2022/06/08 13:05:31;;;;;;;3.47;2.35;;;;;;;;;;10282274;28;20051;-68
2022/06/08 13:10:35;;;;;;;3.20;1.95;;;;;;;;;;10281372;28;20070;-69
2022/06/08 13:15:40;;;;;;;1.83;1.70;;;;;;;;;;10288227;28;21401;-68
2022/06/08 13:20:42;;;;;;;3.10;1.38;;;;;;;;;;10289040;28;20271;-70
2022/06/08 13:25:49;;;;;;;4.10;1.77;;;;;;;;;;10287875;28;20055;-68
2022/06/08 13:30:55;;;;;;;3.45;1.50;;;;;;;;;;10277094;28;20067;-69
2022/06/08 13:35:57;;;;;;;4.07;1.73;;;;;;;;;;10275457;28;20051;-68
2022/06/08 13:41:03;;;;;;;2.78;1.77;;;;;;;;;;10273954;28;20047;-69
2022/06/08 13:46:08;;;;;;;12.32;2.22;;;;;;;;;;10267002;28;20494;-69
2022/06/08 13:51:11;;;;;;;3.25;1.90;;;;;;;;;;10279913;28;20047;-69
2022/06/08 13:56:17;;;;;;;5.00;2.17;;;;;;;;;;10283111;28;20049;-69
2022/06/08 14:01:23;;;;;;;7.53;2.22;;;;;;;;;;10283690;28;20055;-69
2022/06/08 14:17:08;;;;;;;3.90;2.78;;;;;;;;;;10278805;28;20050;-72
2022/06/08 14:22:15;;;;;;;2.45;2.00;;;;;;;;;;10284521;28;20114;-71
2022/06/08 14:27:20;;;;;;;4.45;2.40;;;;;;;;;;10285399;28;20102;-73
2022/06/08 14:32:35;;;;;;;6.25;1.83;;;;;;;;;;10272442;28;20059;-70
2022/06/08 14:37:38;;;;;;;5.25;2.03;;;;;;;;;;10282994;28;20055;-72
2022/06/08 14:42:44;;;;;;;2.17;1.98;;;;;;;;;;10281900;28;20135;-71
2022/06/08 14:47:47;;;;;;;6.68;2.13;;;;;;;;;;10285730;28;20043;-73
2022/06/08 14:52:50;;;;;;;2.67;1.80;;;;;;;;;;10267325;28;20051;-72
2022/06/08 14:57:54;;;;;;;3.33;2.15;;;;;;;;;;10284915;28;20325;-71
2022/06/08 15:02:57;;;;;;;4.18;2.50;;;;;;;;;;10285195;28;20054;-73
2022/06/08 15:08:00;;;;;;;3.83;2.40;;;;;;;;;;10285989;28;20047;-72
2022/06/08 15:13:04;;;;;;;3.25;2.10;;;;;;;;;;10284153;28;20043;-71
2022/06/08 15:18:12;;;;;;;3.70;2.60;;;;;;;;;;10269253;28;20051;-70
2022/06/08 15:23:15;;;;;;;4.75;2.05;;;;;;;;;;10282776;28;20051;-73
2022/06/08 15:28:21;;;;;;;7.45;2.30;;;;;;;;;;10278321;28;20050;-72
2022/06/08 15:33:27;;;;;;;2.88;1.77;;;;;;;;;;10283683;28;20046;-71
2022/06/08 15:38:33;;;;;;;8.45;2.78;;;;;;;;;;10277416;28;20051;-72
2022/06/08 15:43:37;;;;;;;3.83;2.08;;;;;;;;;;10282504;28;20219;-71
2022/06/08 15:48:41;;;;;;;4.70;2.03;;;;;;;;;;10276628;28;20063;-76
2022/06/08 15:53:49;;;;;;;2.13;1.92;;;;;;;;;;10278697;28;20228;-70
2022/06/08 15:58:57;;;;;;;2.72;2.05;;;;;;;;;;10283315;28;20212;-72
2022/06/08 16:04:00;;;;;;;2.40;2.00;;;;;;;;;;10281895;28;20051;-73
2022/06/08 16:09:02;;;;;;;8.30;4.60;;;;;;;;;;10282850;28;20062;-71
2022/06/08 16:14:07;;;;;;;3.20;2.90;;;;;;;;;;10282696;28;20039;-74
2022/06/08 16:19:10;;;;;;;6.97;2.22;;;;;;;;;;10267737;28;20051;-68
2022/06/08 16:24:13;;;;;;;3.60;2.90;;;;;;;;;;10276274;28;20334;-69
2022/06/08 16:29:17;;;;;;;3.20;2.80;;;;;;;;;;10276903;28;20114;-71
2022/06/08 16:34:20;;;;;;;4.82;3.25;;;;;;;;;;10289817;28;20254;-70
2022/06/08 16:39:24;;;;;;;10.32;4.47;;;;;;;;;;10290267;28;20050;-69
2022/06/08 16:44:28;;;;;;;9.77;3.78;;;;;;;;;;10290673;28;20039;-72
2022/06/08 16:49:30;;;;;;;4.30;3.38;;;;;;;;;;10290141;28;20246;-70
2022/06/08 16:54:33;;;;;;;6.72;3.50;;;;;;;;;;10287939;28;20067;-70
2022/06/08 16:59:41;;;;;;;5.28;4.10;;;;;;;;;;10289239;28;20238;-72
2022/06/08 17:04:45;;;;;;;10.35;3.60;;;;;;;;;;10288752;28;20074;-72
2022/06/08 17:09:48;;;;;;;5.63;3.22;;;;;;;;;;10288318;28;20058;-70
2022/06/08 17:14:55;;;;;;;4.20;3.33;;;;;;;;;;10290230;28;20039;-72
2022/06/08 17:19:58;;;;;;;5.00;3.05;;;;;;;;;;10289075;28;20047;-72
2022/06/08 17:25:00;;;;;;;3.70;2.93;;;;;;;;;;10288478;28;20046;-71
2022/06/08 17:30:06;;;;;;;6.03;2.97;;;;;;;;;;10278478;28;20055;-72
2022/06/08 17:35:10;;;;;;;4.53;2.80;;;;;;;;;;10286922;28;20047;-70
2022/06/08 17:40:15;;;;;;;6.53;3.13;;;;;;;;;;10288248;28;20090;-71
2022/06/08 17:45:19;;;;;;;9.13;3.65;;;;;;;;;;10288366;28;20044;-72
2022/06/08 17:50:24;;;;;;;5.30;2.97;;;;;;;;;;10286146;28;20238;-73
2022/06/08 17:55:28;;;;;;;3.67;3.08;;;;;;;;;;10279633;28;20323;-72
2022/06/08 18:00:32;;;;;;;5.55;3.22;;;;;;;;;;10273587;29;20047;-68
2022/06/08 18:05:35;;;;;;;;;;;;;;;;;;10283096;28;20054;-70
2022/06/08 18:10:41;;;;;;;4.55;3.15;;;;;;;;;;10286338;28;19918;-69
2022/06/08 18:15:48;;;;;;;3.75;2.97;;;;;;;;;;10285423;28;20047;-72
2022/06/08 18:20:52;;;;;;;16.00;3.67;;;;;;;;;;10286257;28;20058;-68
2022/06/08 18:25:55;;;;;;;18.02;4.35;;;;;;;;;;10280456;28;20065;-68
2022/06/08 18:30:59;;;;;;;5.63;3.27;;;;;;;;;;10270988;28;20078;-69
2022/06/08 18:36:02;;;;;;;6.93;4.13;;;;;;;;;;10278268;28;20059;-68
2022/06/08 18:41:09;;;;;;;10.80;6.40;;;;;;;;;;10258936;29;20215;-71
2022/06/08 18:46:17;;;;;;;7.78;4.80;;;;;;;;;;10269929;28;20102;-69
2022/06/08 18:51:21;;;;;;;5.82;4.35;;;;;;;;;;10286123;28;20054;-68
2022/06/08 18:56:25;;;;;;;11.65;4.68;;;;;;;;;;10272931;28;20207;-68
2022/06/08 19:01:31;;;;;;;10.45;4.93;;;;;;;;;;10273349;28;20244;-68
2022/06/08 19:06:34;;;;;;;10.02;6.00;;;;;;;;;;10285634;28;20078;-70
2022/06/08 19:11:38;;;;;;;11.25;6.45;;;;;;;;;;10284999;28;20047;-67
2022/06/08 19:16:42;;;;;;;12.67;6.50;;;;;;;;;;10286085;28;20055;-67
2022/06/08 19:21:44;;;;;;;12.82;6.57;;;;;;;;;;10270399;28;20050;-67
2022/06/08 19:26:47;;;;;;;13.02;6.80;;;;;;;;;;10285868;28;20059;-67
2022/06/08 19:31:51;;;;;;;21.63;8.70;;;;;;;;;;10270750;28;20055;-68
2022/06/08 19:36:55;;;;;;;13.20;7.50;;;;;;;;;;10284057;28;20062;-68
2022/06/08 19:41:58;;;;;;;19.02;8.85;;;;;;;;;;10270875;28;20055;-69
2022/06/08 19:47:02;;;;;;;13.20;8.50;;;;;;;;;;10283520;28;20055;-68
2022/06/08 19:52:05;;;;;;;16.40;9.18;;;;;;;;;;10283999;28;20361;-69
2022/06/08 19:57:08;;;;;;;16.23;10.00;;;;;;;;;;10275148;28;20350;-68
2022/06/08 20:02:12;;;;;;;17.20;10.07;;;;;;;;;;10291681;28;20043;-67
2022/06/08 20:07:14;;;;;;;19.25;10.70;;;;;;;;;;10285571;28;20043;-67
2022/06/08 20:12:17;;;;;;;15.13;10.15;;;;;;;;;;10279323;28;20054;-69
2022/06/08 20:17:22;;;;;;;20.33;10.50;;;;;;;;;;10278454;29;20382;-67
2022/06/08 20:22:24;;;;;;;;;;;;;;;;;;10282973;28;20054;-68
2022/06/08 20:27:27;;;;;;;18.25;10.98;;;;;;;;;;10290160;28;20197;-67
2022/06/08 20:32:31;;;;;;;18.23;10.02;;;;;;;;;;10279713;28;20047;-67
2022/06/08 20:37:34;;;;;;;20.92;10.40;;;;;;;;;;10291564;28;20221;-68
2022/06/08 20:42:37;;;;;;;19.92;11.45;;;;;;;;;;10283416;28;20044;-67
2022/06/08 20:47:42;;;;;;;27.45;12.40;;;;;;;;;;10278276;28;20363;-68
2022/06/08 20:52:44;;;;;;;24.00;10.82;;;;;;;;;;10283759;28;20082;-68
2022/06/08 20:57:47;;;;;;;21.88;11.68;;;;;;;;;;10290142;28;20046;-69
2022/06/08 21:02:52;;;;;;;20.35;11.05;;;;;;;;;;10289623;28;20227;-69
2022/06/08 21:07:56;;;;;;;18.55;11.35;;;;;;;;;;10275039;28;20246;-68
2022/06/08 21:12:59;;;;;;;18.92;11.75;;;;;;;;;;10289766;28;20247;-67
2022/06/08 21:18:04;;;;;;;20.88;12.40;;;;;;;;;;10289463;28;20071;-67
2022/06/08 21:23:07;;;;;;;;;;;;;;;;;;10283348;28;20054;-69
2022/06/08 21:28:10;;;;;;;18.80;11.98;;;;;;;;;;10284818;28;19926;-68
2022/06/08 21:33:15;;;;;;;24.67;12.60;;;;;;;;;;10292061;28;20091;-69
2022/06/08 21:38:20;;;;;;;19.60;11.90;;;;;;;;;;10291128;28;20043;-68
2022/06/08 21:43:24;;;;;;;20.00;11.63;;;;;;;;;;10291143;28;20043;-69
2022/06/08 21:48:28;;;;;;;19.57;11.93;;;;;;;;;;10278030;28;20251;-68
2022/06/08 21:53:30;;;;;;;21.53;12.23;;;;;;;;;;10290598;28;20047;-66
2022/06/08 21:58:32;;;;;;;20.55;12.13;;;;;;;;;;10290273;28;20304;-68
2022/06/08 22:03:37;;;;;;;18.55;11.82;;;;;;;;;;10289684;28;20043;-69
2022/06/08 22:08:47;;;;;;;21.63;12.20;;;;;;;;;;10289992;28;20058;-68
2022/06/08 22:13:51;;;;;;;23.15;12.52;;;;;;;;;;10276453;28;20051;-68
2022/06/08 22:18:57;;;;;;;21.02;12.30;;;;;;;;;;10275604;28;20047;-67
2022/06/08 22:24:01;;;;;;;21.23;11.77;;;;;;;;;;10288864;28;20082;-67
2022/06/08 22:29:04;;;;;;;17.75;11.57;;;;;;;;;;10283607;28;20106;-67
2022/06/08 22:34:08;;;;;;;18.90;12.27;;;;;;;;;;10277139;28;20066;-68
2022/06/08 22:39:10;;;;;;;18.98;12.48;;;;;;;;;;10289087;28;20069;-68
2022/06/08 22:44:13;;;;;;;23.70;13.07;;;;;;;;;;10274261;28;20064;-67
2022/06/08 22:49:17;;;;;;;31.50;13.45;;;;;;;;;;10288765;28;20047;-68
2022/06/08 22:54:19;;;;;;;28.77;13.57;;;;;;;;;;10287688;28;20043;-68
2022/06/08 22:59:22;;;;;;;19.15;12.88;;;;;;;;;;10288108;28;20051;-67
2022/06/08 23:04:26;;;;;;;22.60;12.73;;;;;;;;;;10287956;28;20050;-67
2022/06/08 23:09:28;;;;;;;27.65;14.10;;;;;;;;;;10287753;28;20047;-67
2022/06/08 23:14:32;;;;;;;24.02;13.23;;;;;;;;;;10274150;28;20365;-68
2022/06/08 23:24:56;;;;;;;27.10;14.55;;;;;;;;;;10287888;28;20106;-68
2022/06/08 23:29:59;;;;;;;23.98;14.75;;;;;;;;;;10277916;28;20118;-67
2022/06/08 23:35:03;;;;;;;30.38;15.05;;;;;;;;;;10286604;28;20050;-66
2022/06/08 23:40:08;;;;;;;28.23;15.88;;;;;;;;;;10287328;28;20047;-66
2022/06/08 23:45:12;;;;;;;36.30;20.25;;;;;;;;;;10286639;28;20043;-67
2022/06/08 23:55:36;;;;;;;36.30;19.63;;;;;;;;;;10285164;28;20050;-68
